Time;durP1;ratioP1;P1;durP2;ratioP2;P2;SDS_P1;SDS_P2;PMS_P1;PMS_P2;Temp;Humidity;BMP_temperature;BMP_pressure;BME280_temperature;BME280_humidity;BME280_pressure;Samples;Min_cycle;Max_cycle;Signal;HPM_P1;HPM_P2
2021/10/18 00:01:58;;;;;;;15.65;10.98;;;9.50;91.50;;;;;;5027653;28;20181;-75
2021/10/18 00:04:24;;;;;;;18.35;12.52;;;9.50;91.50;;;;;;5039225;28;20037;-75
2021/10/18 00:06:49;;;;;;;22.55;13.77;;;9.40;91.50;;;;;;5029243;28;20037;-75
2021/10/18 00:09:15;;;;;;;25.02;15.50;;;9.50;91.50;;;;;;5029876;28;20122;-75
2021/10/18 00:11:40;;;;;;;22.85;14.90;;;9.50;91.50;;;;;;5015689;28;20401;-75
2021/10/18 00:14:07;;;;;;;26.20;15.27;;;9.40;91.60;;;;;;5119791;27;20039;-75
2021/10/18 00:16:37;;;;;;;21.42;13.60;;;9.40;91.60;;;;;;5046328;28;20044;-75
2021/10/18 00:19:04;;;;;;;20.58;13.40;;;9.40;91.60;;;;;;5013085;28;20116;-75
2021/10/18 00:21:30;;;;;;;20.60;13.73;;;9.30;91.60;;;;;;5045757;28;20029;-75
2021/10/18 00:23:56;;;;;;;23.48;13.20;;;9.30;91.60;;;;;;5025234;28;20037;-75
2021/10/18 00:26:21;;;;;;;20.73;13.57;;;9.30;91.50;;;;;;5027087;28;20459;-75
2021/10/18 00:28:47;;;;;;;20.70;12.95;;;9.30;91.50;;;;;;5027509;28;20041;-75
2021/10/18 00:31:12;;;;;;;20.65;13.60;;;9.30;91.50;;;;;;5046821;28;20033;-75
2021/10/18 00:33:38;;;;;;;18.63;13.27;;;9.30;91.50;;;;;;5045528;28;20466;-75
2021/10/18 00:36:04;;;;;;;18.92;14.07;;;9.30;91.50;;;;;;5008583;28;20041;-75
2021/10/18 00:38:29;;;;;;;20.95;14.63;;;9.30;91.60;;;;;;5041830;28;20042;-75
2021/10/18 00:40:55;;;;;;;23.20;14.63;;;9.30;91.60;;;;;;5046654;28;20055;-75
2021/10/18 00:43:21;;;;;;;19.65;13.45;;;9.30;91.60;;;;;;5026875;28;20073;-75
2021/10/18 00:45:47;;;;;;;22.35;13.88;;;9.20;91.60;;;;;;5015779;28;20088;-75
2021/10/18 00:48:12;;;;;;;22.42;14.45;;;9.20;91.60;;;;;;5025615;28;20405;-75
2021/10/18 00:50:38;;;;;;;20.35;14.73;;;9.20;91.70;;;;;;5035619;28;20033;-75
2021/10/18 00:53:04;;;;;;;23.02;14.25;;;9.20;91.70;;;;;;5007421;28;20055;-75
2021/10/18 00:55:30;;;;;;;16.65;12.82;;;9.20;91.70;;;;;;5036747;28;20416;-75
2021/10/18 00:57:57;;;;;;;23.05;13.82;;;9.20;91.70;;;;;;5040726;28;20041;-75
2021/10/18 01:00:22;;;;;;;17.88;12.95;;;9.20;91.70;;;;;;5019923;28;20086;-75
2021/10/18 01:02:48;;;;;;;18.92;12.45;;;9.20;91.70;;;;;;5013441;28;20415;-75
2021/10/18 01:05:14;;;;;;;19.50;14.05;;;9.20;91.70;;;;;;5010910;28;20033;-75
2021/10/18 01:07:40;;;;;;;20.88;13.82;;;9.10;91.70;;;;;;5031516;28;20464;-75
2021/10/18 01:10:06;;;;;;;20.48;13.85;;;9.10;91.70;;;;;;5029265;28;20045;-75
2021/10/18 01:12:32;;;;;;;21.65;14.35;;;9.10;91.70;;;;;;5013558;28;20434;-75
2021/10/18 01:14:57;;;;;;;19.90;13.48;;;9.10;91.80;;;;;;5011558;28;20063;-75
2021/10/18 01:17:23;;;;;;;21.73;13.82;;;9.10;91.70;;;;;;5043387;28;20037;-75
2021/10/18 01:19:50;;;;;;;18.98;13.32;;;9.10;91.70;;;;;;5029672;28;20086;-75
2021/10/18 01:22:16;;;;;;;22.30;13.38;;;9.10;91.70;;;;;;5048186;28;20101;-75
2021/10/18 01:24:41;;;;;;;20.75;13.15;;;9.10;91.70;;;;;;5040118;28;20443;-75
2021/10/18 01:27:07;;;;;;;21.90;13.93;;;9.00;91.70;;;;;;5031228;28;20079;-75
2021/10/18 01:29:35;;;;;;;22.85;14.40;;;9.00;91.70;;;;;;5034736;28;20375;-75
2021/10/18 01:32:02;;;;;;;20.45;13.10;;;9.10;91.70;;;;;;5010953;28;20123;-75
2021/10/18 01:34:28;;;;;;;19.63;13.77;;;9.10;91.70;;;;;;5014637;28;20069;-75
2021/10/18 01:37:00;;;;;;;21.55;14.02;;;9.00;91.70;;;;;;5048176;28;20076;-75
2021/10/18 01:39:26;;;;;;;20.27;13.60;;;9.00;91.70;;;;;;5008904;28;20398;-75
2021/10/18 01:41:52;;;;;;;21.63;14.35;;;9.00;91.70;;;;;;5041696;28;20414;-75
2021/10/18 01:44:17;;;;;;;23.77;14.07;;;9.00;91.70;;;;;;5027005;28;20034;-75
2021/10/18 01:46:43;;;;;;;22.25;14.10;;;9.00;91.70;;;;;;5024560;28;20056;-75
2021/10/18 01:49:09;;;;;;;20.52;13.60;;;9.00;91.70;;;;;;4993360;28;20034;-75
2021/10/18 01:51:35;;;;;;;18.17;12.57;;;9.00;91.70;;;;;;5041625;28;20103;-75
2021/10/18 01:54:00;;;;;;;20.20;14.10;;;9.00;91.60;;;;;;4997656;28;20041;-75
2021/10/18 01:56:26;;;;;;;22.10;13.60;;;9.00;91.60;;;;;;5037261;28;20044;-75
2021/10/18 01:58:52;;;;;;;18.45;13.38;;;8.90;91.60;;;;;;5022124;28;20033;-75
2021/10/18 02:01:18;;;;;;;18.05;14.00;;;8.90;91.60;;;;;;5028739;28;20128;-75
2021/10/18 02:03:43;;;;;;;20.08;13.75;;;8.90;91.60;;;;;;5015350;28;20061;-75
2021/10/18 02:06:10;;;;;;;18.17;13.43;;;8.90;91.60;;;;;;5035870;28;20030;-75
2021/10/18 02:08:36;;;;;;;18.60;13.95;;;8.80;91.60;;;;;;5030304;28;20037;-75
2021/10/18 02:11:02;;;;;;;20.35;13.38;;;8.90;91.70;;;;;;5041790;28;20048;-74
2021/10/18 02:13:27;;;;;;;19.77;14.10;;;8.80;91.60;;;;;;5016180;28;20667;-75
2021/10/18 02:15:53;;;;;;;20.98;13.65;;;8.80;91.60;;;;;;5020386;28;20536;-75
2021/10/18 02:18:19;;;;;;;27.55;14.45;;;8.80;91.70;;;;;;5019288;28;20041;-75
2021/10/18 02:20:45;;;;;;;23.50;14.38;;;8.90;91.70;;;;;;5036594;28;20037;-74
2021/10/18 02:23:10;;;;;;;20.55;14.73;;;8.80;91.70;;;;;;5004188;28;20029;-75
2021/10/18 02:25:36;;;;;;;27.13;15.60;;;8.80;91.70;;;;;;5017919;28;20039;-75
2021/10/18 02:28:02;;;;;;;22.55;15.32;;;8.80;91.70;;;;;;5015653;28;20034;-75
2021/10/18 02:30:27;;;;;;;22.08;14.90;;;8.90;91.80;;;;;;5015797;28;20112;-75
2021/10/18 02:32:53;;;;;;;23.40;14.60;;;8.90;91.80;;;;;;5034619;28;20119;-75
2021/10/18 02:35:18;;;;;;;23.05;15.10;;;8.90;91.80;;;;;;5014674;28;20021;-75
2021/10/18 02:37:44;;;;;;;21.52;15.77;;;8.90;91.80;;;;;;5018245;28;20045;-75
2021/10/18 02:40:10;;;;;;;23.45;15.00;;;8.90;91.90;;;;;;4997205;28;20049;-75
2021/10/18 02:42:36;;;;;;;23.95;15.38;;;8.90;91.90;;;;;;5037059;28;20060;-75
2021/10/18 02:45:02;;;;;;;20.25;13.90;;;8.90;91.90;;;;;;5030229;28;20170;-75
2021/10/18 02:47:27;;;;;;;25.02;16.10;;;8.90;91.90;;;;;;5038944;28;20114;-75
2021/10/18 02:49:53;;;;;;;24.25;15.52;;;8.90;91.90;;;;;;5010851;28;20052;-75
2021/10/18 02:52:18;;;;;;;22.02;15.73;;;8.90;91.90;;;;;;5039716;28;20129;-75
2021/10/18 02:54:44;;;;;;;25.63;15.40;;;9.00;92.00;;;;;;5010407;28;20049;-75
2021/10/18 02:57:09;;;;;;;19.92;13.95;;;8.90;91.90;;;;;;5022726;28;20149;-75
2021/10/18 02:59:35;;;;;;;20.27;14.38;;;8.90;91.90;;;;;;5043176;28;20049;-75
2021/10/18 03:02:01;;;;;;;22.63;14.88;;;8.90;91.90;;;;;;5046130;28;20034;-75
2021/10/18 03:04:26;;;;;;;19.60;14.38;;;8.90;91.90;;;;;;5026401;28;20040;-75
2021/10/18 03:06:52;;;;;;;23.65;15.15;;;8.90;92.00;;;;;;5046122;28;20025;-75
2021/10/18 03:09:17;;;;;;;21.60;14.05;;;8.90;92.00;;;;;;5038205;28;20042;-75
2021/10/18 03:11:43;;;;;;;24.70;15.20;;;8.90;92.00;;;;;;5013147;28;20421;-75
2021/10/18 03:14:08;;;;;;;22.15;15.80;;;8.80;92.00;;;;;;5027735;28;20504;-75
2021/10/18 03:16:34;;;;;;;24.23;15.07;;;8.80;92.00;;;;;;5038766;28;20037;-75
2021/10/18 03:19:00;;;;;;;23.00;14.38;;;8.80;92.10;;;;;;5027717;28;20033;-75
2021/10/18 03:21:25;;;;;;;25.63;14.90;;;8.70;92.10;;;;;;5039134;28;20128;-75
2021/10/18 03:23:51;;;;;;;21.70;14.52;;;8.70;92.10;;;;;;5027554;28;20062;-75
2021/10/18 03:26:18;;;;;;;27.52;16.95;;;8.70;92.10;;;;;;5011680;28;20026;-75
2021/10/18 03:28:44;;;;;;;24.00;15.75;;;8.70;92.10;;;;;;5010158;28;20064;-75
2021/10/18 03:31:10;;;;;;;23.55;15.05;;;8.70;92.20;;;;;;5021257;28;20060;-75
2021/10/18 03:33:37;;;;;;;24.88;16.27;;;8.70;92.20;;;;;;5027613;28;20401;-75
2021/10/18 03:36:04;;;;;;;20.67;14.93;;;8.60;92.10;;;;;;5019495;28;20032;-75
2021/10/18 03:38:30;;;;;;;20.95;14.65;;;8.60;92.10;;;;;;5044827;28;20047;-75
2021/10/18 03:40:56;;;;;;;22.90;14.93;;;8.60;92.10;;;;;;5105949;28;20457;-75
2021/10/18 03:43:22;;;;;;;22.58;14.95;;;8.60;92.10;;;;;;5091170;28;20039;-75
2021/10/18 03:45:48;;;;;;;24.02;14.85;;;8.50;92.10;;;;;;5097900;28;20028;-75
2021/10/18 03:48:14;;;;;;;22.83;15.18;;;8.50;92.10;;;;;;5092513;28;20036;-75
2021/10/18 03:50:40;;;;;;;26.58;17.63;;;8.40;92.10;;;;;;5096144;28;20034;-75
2021/10/18 03:53:06;;;;;;;21.08;14.60;;;8.40;92.10;;;;;;5093702;28;20036;-75
2021/10/18 03:55:31;;;;;;;22.75;15.27;;;8.40;92.10;;;;;;5096822;28;20043;-75
2021/10/18 03:57:57;;;;;;;26.45;17.92;;;8.40;92.10;;;;;;5096031;28;20043;-75
2021/10/18 04:00:23;;;;;;;25.10;16.60;;;8.40;92.10;;;;;;5095139;28;20110;-75
2021/10/18 04:02:48;;;;;;;23.23;16.35;;;8.30;92.10;;;;;;5096245;28;20036;-75
2021/10/18 04:05:14;;;;;;;20.88;14.68;;;8.30;92.20;;;;;;5090169;28;20095;-75
2021/10/18 04:07:44;;;;;;;23.05;16.23;;;8.30;92.20;;;;;;5090545;28;20385;-75
2021/10/18 04:10:10;;;;;;;26.00;16.73;;;8.30;92.20;;;;;;5094183;28;20461;-75
2021/10/18 04:12:35;;;;;;;27.42;17.80;;;8.20;92.20;;;;;;5090666;28;20074;-75
2021/10/18 04:15:01;;;;;;;32.08;18.13;;;8.30;92.20;;;;;;5092260;28;20448;-75
2021/10/18 04:17:27;;;;;;;25.58;16.75;;;8.20;92.20;;;;;;5097973;28;20122;-75
2021/10/18 04:19:52;;;;;;;27.60;18.13;;;8.20;92.20;;;;;;5075702;28;20036;-75
2021/10/18 04:22:18;;;;;;;26.90;18.00;;;8.20;92.20;;;;;;5104426;28;20039;-74
2021/10/18 04:24:43;;;;;;;27.20;18.02;;;8.20;92.20;;;;;;5093022;28;20047;-75
2021/10/18 04:27:09;;;;;;;28.70;18.30;;;8.20;92.20;;;;;;5105793;28;20040;-75
2021/10/18 04:29:35;;;;;;;28.05;18.55;;;8.20;92.20;;;;;;5109643;28;20028;-75
2021/10/18 04:32:00;;;;;;;26.30;18.27;;;8.20;92.30;;;;;;5095880;28;20040;-75
2021/10/18 04:34:26;;;;;;;24.70;17.75;;;8.20;92.30;;;;;;5075124;28;20032;-75
2021/10/18 04:36:53;;;;;;;29.63;17.65;;;8.20;92.30;;;;;;5093554;28;20232;-75
2021/10/18 04:39:19;;;;;;;29.02;17.67;;;8.20;92.30;;;;;;5039484;28;20403;-75
2021/10/18 04:41:45;;;;;;;31.02;19.73;;;8.20;92.30;;;;;;5051458;28;20030;-75
2021/10/18 04:44:11;;;;;;;31.58;20.27;;;8.20;92.30;;;;;;5009983;28;20030;-75
2021/10/18 04:46:37;;;;;;;27.77;18.58;;;8.20;92.30;;;;;;5026487;28;20037;-75
2021/10/18 04:49:03;;;;;;;31.00;19.75;;;8.20;92.30;;;;;;5016395;28;20038;-75
2021/10/18 04:51:28;;;;;;;28.02;19.15;;;8.20;92.30;;;;;;5095350;28;20068;-75
2021/10/18 04:53:54;;;;;;;30.65;19.70;;;8.20;92.30;;;;;;5048857;28;20038;-75
2021/10/18 04:56:19;;;;;;;29.80;19.67;;;8.20;92.40;;;;;;5022710;28;20044;-75
2021/10/18 04:58:45;;;;;;;36.13;20.05;;;8.20;92.40;;;;;;5017793;28;20045;-75
2021/10/18 05:01:11;;;;;;;29.92;20.05;;;8.20;92.40;;;;;;5011454;28;20061;-74
2021/10/18 05:03:36;;;;;;;29.85;19.05;;;8.20;92.50;;;;;;5010211;28;20108;-75
2021/10/18 05:06:02;;;;;;;35.15;19.23;;;8.30;92.50;;;;;;5000517;28;20162;-75
2021/10/18 05:08:28;;;;;;;31.55;19.55;;;8.30;92.50;;;;;;5008776;28;20802;-75
2021/10/18 05:10:53;;;;;;;29.10;19.52;;;8.30;92.50;;;;;;5009912;28;20041;-75
2021/10/18 05:13:19;;;;;;;33.95;20.40;;;8.30;92.50;;;;;;5015297;28;20117;-75
2021/10/18 05:15:48;;;;;;;28.42;19.05;;;8.30;92.50;;;;;;5012031;28;20095;-75
2021/10/18 05:18:14;;;;;;;32.08;18.58;;;8.40;92.60;;;;;;5014660;28;20045;-75
2021/10/18 05:20:39;;;;;;;28.50;18.25;;;8.40;92.60;;;;;;5012831;28;20497;-75
2021/10/18 05:23:05;;;;;;;27.75;16.48;;;8.40;92.60;;;;;;5017833;28;20033;-75
2021/10/18 05:25:31;;;;;;;26.60;16.33;;;8.40;92.60;;;;;;5023921;27;20030;-75
2021/10/18 05:27:57;;;;;;;30.50;18.15;;;8.50;92.60;;;;;;5023179;28;20075;-75
2021/10/18 05:30:26;;;;;;;28.38;16.10;;;8.50;92.60;;;;;;5012282;28;20030;-75
2021/10/18 05:32:52;;;;;;;24.20;16.13;;;8.50;92.50;;;;;;5029374;28;20509;-74
2021/10/18 05:35:18;;;;;;;24.00;15.75;;;8.50;92.60;;;;;;4995706;28;20393;-75
2021/10/18 05:37:45;;;;;;;23.75;15.35;;;8.50;92.60;;;;;;5016758;28;20046;-75
2021/10/18 05:40:12;;;;;;;24.08;16.88;;;8.50;92.60;;;;;;5091677;28;20055;-75
2021/10/18 05:42:38;;;;;;;27.20;17.02;;;8.50;92.60;;;;;;5107767;28;20062;-75
2021/10/18 05:45:05;;;;;;;23.98;15.25;;;8.40;92.60;;;;;;5093994;28;20774;-75
2021/10/18 05:47:30;;;;;;;22.30;16.20;;;8.40;92.60;;;;;;5090644;28;20083;-75
2021/10/18 05:49:56;;;;;;;23.30;15.15;;;8.30;92.50;;;;;;5071648;28;20032;-75
2021/10/18 05:52:22;;;;;;;20.83;15.00;;;8.30;92.50;;;;;;5088219;28;20035;-75
2021/10/18 05:54:48;;;;;;;23.55;15.90;;;8.30;92.50;;;;;;5091745;28;20081;-75
2021/10/18 05:57:13;;;;;;;22.83;15.00;;;8.20;92.50;;;;;;5090492;28;20497;-75
2021/10/18 05:59:39;;;;;;;21.98;15.20;;;8.20;92.50;;;;;;5091073;28;20050;-75
2021/10/18 06:02:08;;;;;;;23.70;15.30;;;8.20;92.50;;;;;;5091672;28;20499;-74
2021/10/18 06:04:36;;;;;;;24.17;15.48;;;8.20;92.50;;;;;;5088478;28;20028;-75
2021/10/18 06:07:01;;;;;;;22.65;15.32;;;8.20;92.40;;;;;;5091863;28;20032;-75
2021/10/18 06:09:27;;;;;;;25.95;16.08;;;8.20;92.40;;;;;;5073530;28;20036;-75
2021/10/18 06:11:53;;;;;;;24.92;14.98;;;8.20;92.40;;;;;;5073551;28;20028;-75
2021/10/18 06:14:18;;;;;;;19.33;15.15;;;8.10;92.40;;;;;;5073454;28;20036;-75
2021/10/18 06:16:44;;;;;;;27.73;15.82;;;8.20;92.40;;;;;;5090260;28;20076;-75
2021/10/18 06:19:09;;;;;;;19.90;14.10;;;8.10;92.30;;;;;;5091105;28;20066;-75
2021/10/18 06:21:35;;;;;;;23.20;15.75;;;8.10;92.30;;;;;;5090560;28;20111;-75
2021/10/18 06:24:01;;;;;;;22.85;15.45;;;8.10;92.30;;;;;;5089687;28;20139;-75
2021/10/18 06:26:27;;;;;;;24.83;16.63;;;8.10;92.30;;;;;;5089930;28;20039;-75
2021/10/18 06:28:52;;;;;;;23.85;16.50;;;8.10;92.30;;;;;;5091206;28;20081;-75
2021/10/18 06:31:18;;;;;;;27.45;15.77;;;8.10;92.30;;;;;;5090135;28;20110;-75
2021/10/18 06:33:43;;;;;;;22.98;16.15;;;8.10;92.30;;;;;;5091375;28;20036;-75
2021/10/18 06:36:09;;;;;;;22.85;15.45;;;8.10;92.20;;;;;;5090031;28;20028;-75
2021/10/18 06:38:35;;;;;;;24.90;17.13;;;8.10;92.20;;;;;;5071379;28;20056;-75
2021/10/18 06:41:00;;;;;;;22.27;15.85;;;8.10;92.20;;;;;;5028199;28;20025;-75
2021/10/18 06:43:26;;;;;;;25.75;16.38;;;8.20;92.20;;;;;;5027899;28;20025;-75
2021/10/18 06:45:52;;;;;;;23.45;16.92;;;8.20;92.20;;;;;;5010556;28;20040;-75
2021/10/18 06:48:18;;;;;;;28.02;18.05;;;8.20;92.20;;;;;;5010397;28;20389;-75
2021/10/18 06:50:46;;;;;;;24.13;17.20;;;8.20;92.20;;;;;;5028106;28;20041;-75
2021/10/18 06:53:17;;;;;;;24.27;17.17;;;8.30;92.20;;;;;;5009929;28;20116;-75
2021/10/18 06:55:43;;;;;;;29.77;17.70;;;8.40;92.30;;;;;;5010327;28;20035;-75
2021/10/18 06:58:10;;;;;;;24.75;16.85;;;8.40;92.30;;;;;;5027838;28;20112;-75
2021/10/18 07:00:36;;;;;;;24.80;16.70;;;8.50;92.30;;;;;;5027849;28;20028;-75
2021/10/18 07:03:02;;;;;;;24.83;16.08;;;8.50;92.30;;;;;;5009855;28;20045;-75
2021/10/18 07:05:28;;;;;;;29.95;18.05;;;8.60;92.30;;;;;;5026861;28;20033;-75
2021/10/18 07:07:54;;;;;;;28.98;18.42;;;8.70;92.30;;;;;;4999001;28;20042;-75
2021/10/18 07:10:20;;;;;;;26.83;18.08;;;8.80;92.30;;;;;;5019838;28;20038;-75
2021/10/18 07:12:45;;;;;;;27.92;17.73;;;8.80;92.30;;;;;;5017444;28;20428;-75
2021/10/18 07:15:11;;;;;;;28.45;16.05;;;8.90;92.20;;;;;;5013677;28;20029;-75
2021/10/18 07:17:37;;;;;;;24.92;17.70;;;9.00;92.10;;;;;;5016782;28;20024;-75
2021/10/18 07:20:04;;;;;;;22.70;16.98;;;9.10;92.00;;;;;;5025499;28;20671;-75
2021/10/18 07:22:35;;;;;;;30.20;19.00;;;9.20;92.00;;;;;;5039800;28;20038;-75
2021/10/18 07:25:01;;;;;;;25.38;16.00;;;9.30;91.90;;;;;;5027483;28;20086;-75
2021/10/18 07:27:27;;;;;;;24.90;17.45;;;9.30;91.80;;;;;;4993423;28;20034;-75
2021/10/18 07:29:56;;;;;;;24.58;17.20;;;9.40;91.80;;;;;;5027691;28;20029;-76
2021/10/18 07:32:22;;;;;;;19.73;15.07;;;9.40;91.80;;;;;;5009976;28;20033;-76
2021/10/18 07:34:47;;;;;;;23.10;16.00;;;9.50;91.70;;;;;;5027185;28;20041;-75
2021/10/18 07:37:13;;;;;;;23.27;15.43;;;9.50;91.70;;;;;;5027136;28;20038;-76
2021/10/18 07:39:39;;;;;;;23.67;14.18;;;9.60;91.60;;;;;;5026867;28;20050;-75
2021/10/18 07:42:07;;;;;;;22.90;14.68;;;9.60;91.50;;;;;;5038289;28;20508;-75
2021/10/18 07:44:32;;;;;;;22.10;15.05;;;9.70;91.50;;;;;;5048797;27;20486;-75
2021/10/18 07:46:59;;;;;;;22.60;14.65;;;9.70;91.50;;;;;;5031761;28;20041;-75
2021/10/18 07:49:30;;;;;;;21.88;13.38;;;9.70;91.50;;;;;;5004384;28;20033;-76
2021/10/18 07:51:56;;;;;;;22.48;14.98;;;9.70;91.40;;;;;;5018536;28;20037;-76
2021/10/18 07:54:24;;;;;;;20.92;14.45;;;9.80;91.40;;;;;;5019443;28;20102;-76
2021/10/18 07:56:50;;;;;;;18.90;14.13;;;9.80;91.40;;;;;;5025597;28;20057;-75
2021/10/18 07:59:16;;;;;;;20.40;14.73;;;9.80;91.30;;;;;;5026484;28;20036;-75
2021/10/18 08:01:42;;;;;;;22.42;14.10;;;9.90;91.60;;;;;;4995408;28;20038;-76
2021/10/18 08:04:07;;;;;;;20.38;12.50;;;9.90;91.40;;;;;;5012696;28;20453;-75
2021/10/18 08:06:33;;;;;;;19.83;12.82;;;9.90;91.30;;;;;;5030282;28;20044;-76
2021/10/18 08:08:59;;;;;;;18.08;12.02;;;10.00;91.30;;;;;;5009644;28;20029;-76
2021/10/18 08:11:24;;;;;;;22.98;12.27;;;10.10;91.30;;;;;;5027493;28;20030;-76
2021/10/18 08:13:50;;;;;;;18.33;13.60;;;10.30;91.20;;;;;;4995259;28;20402;-75
2021/10/18 08:16:16;;;;;;;21.77;12.57;;;10.30;91.00;;;;;;5016158;28;20041;-75
2021/10/18 08:18:42;;;;;;;23.17;12.75;;;10.50;90.90;;;;;;5023885;28;20026;-76
2021/10/18 08:21:09;;;;;;;19.38;13.00;;;10.50;90.80;;;;;;5022403;28;20022;-75
2021/10/18 08:23:36;;;;;;;17.52;12.50;;;10.60;90.70;;;;;;5011847;28;20503;-75
2021/10/18 08:26:03;;;;;;;19.40;11.75;;;10.60;90.60;;;;;;5011655;28;20022;-75
2021/10/18 08:28:29;;;;;;;16.90;11.65;;;10.70;90.60;;;;;;5026918;28;20405;-75
2021/10/18 08:30:55;;;;;;;16.70;11.55;;;10.70;90.50;;;;;;4992850;28;20045;-75
2021/10/18 08:33:22;;;;;;;18.95;12.43;;;10.80;90.50;;;;;;5009407;28;20078;-75
2021/10/18 08:35:48;;;;;;;15.68;11.55;;;10.90;90.50;;;;;;5008438;28;20168;-76
2021/10/18 08:38:19;;;;;;;24.38;12.13;;;10.90;90.40;;;;;;5026746;28;20126;-75
2021/10/18 08:45:50;;;;;;;21.85;12.07;;;11.10;90.00;;;;;;5026469;28;20063;-75
2021/10/18 08:48:15;;;;;;;19.42;11.65;;;11.20;90.00;;;;;;5026915;28;20113;-75
2021/10/18 08:50:41;;;;;;;17.15;11.65;;;11.20;89.80;;;;;;5027138;28;20026;-75
2021/10/18 08:53:07;;;;;;;22.75;11.30;;;11.30;89.60;;;;;;5026223;28;20390;-75
2021/10/18 08:55:37;;;;;;;16.58;11.13;;;11.40;89.60;;;;;;5026538;28;20029;-75
2021/10/18 08:58:04;;;;;;;16.50;10.93;;;11.50;89.60;;;;;;5009150;28;20040;-75
2021/10/18 09:00:48;;;;;;;18.15;11.90;;;11.60;89.40;;;;;;5026372;28;20030;-75
2021/10/18 09:03:14;;;;;;;20.95;11.55;;;11.70;89.00;;;;;;5026663;28;20494;-75
2021/10/18 09:05:39;;;;;;;17.50;10.38;;;11.70;88.80;;;;;;5027004;28;20028;-75
2021/10/18 09:08:05;;;;;;;13.60;10.35;;;11.80;88.40;;;;;;5045196;28;20038;-75
2021/10/18 09:10:31;;;;;;;17.02;11.18;;;12.00;88.40;;;;;;5045405;28;20037;-75
2021/10/18 09:13:09;;;;;;;16.73;10.52;;;12.00;88.00;;;;;;5028511;28;20022;-75
2021/10/18 09:15:35;;;;;;;19.25;10.65;;;12.20;87.80;;;;;;5029531;28;20393;-75
2021/10/18 09:18:01;;;;;;;18.38;10.77;;;12.20;87.60;;;;;;5029285;28;20044;-75
2021/10/18 09:20:31;;;;;;;15.48;11.57;;;12.30;87.40;;;;;;5029384;28;20433;-75
2021/10/18 09:23:24;;;;;;;17.73;10.98;;;12.30;87.30;;;;;;5029504;28;20025;-75
2021/10/18 09:25:50;;;;;;;16.05;9.48;;;12.40;87.20;;;;;;5012079;28;20030;-75
2021/10/18 09:28:21;;;;;;;13.25;9.30;;;12.50;87.00;;;;;;5011240;28;20717;-75
2021/10/18 09:30:47;;;;;;;13.32;10.07;;;12.70;86.70;;;;;;5029727;28;20075;-75
2021/10/18 09:33:23;;;;;;;13.52;10.27;;;12.80;86.10;;;;;;5011885;28;20506;-74
2021/10/18 09:35:50;;;;;;;16.05;11.05;;;12.90;85.40;;;;;;5070658;27;20409;-75
2021/10/18 09:38:18;;;;;;;14.02;9.95;;;12.90;85.20;;;;;;5027764;28;20125;-75
2021/10/18 09:40:45;;;;;;;15.90;9.93;;;13.10;85.30;;;;;;5028999;28;20033;-75
2021/10/18 09:43:17;;;;;;;15.40;10.20;;;13.10;85.00;;;;;;5029504;28;20026;-75
2021/10/18 09:46:04;;;;;;;12.88;10.40;;;13.20;84.20;;;;;;5010933;28;20502;-75
2021/10/18 10:59:21;;;;;;;19.38;11.93;;;14.40;78.40;;;;;;5038038;28;20094;-77
2021/10/18 11:01:51;;;;;;;18.27;10.98;;;14.40;77.70;;;;;;5010067;28;20053;-77
2021/10/18 11:04:29;;;;;;;13.25;10.13;;;14.50;77.70;;;;;;5027661;28;20045;-77
2021/10/18 11:06:56;;;;;;;18.83;10.48;;;14.60;77.00;;;;;;5027850;28;20038;-76
2021/10/18 11:09:41;;;;;;;14.93;9.95;;;14.60;77.00;;;;;;5096216;28;20040;-74
2021/10/18 11:12:17;;;;;;;17.58;9.77;;;14.70;77.00;;;;;;5028449;28;20032;-75
2021/10/18 11:15:01;;;;;;;13.30;8.80;;;14.90;77.40;;;;;;5027754;28;20067;-74
2021/10/18 11:17:38;;;;;;;15.75;9.60;;;15.00;77.10;;;;;;5096219;28;20029;-74
2021/10/18 11:20:10;;;;;;;17.27;8.93;;;15.10;76.80;;;;;;5027935;28;20081;-75
2021/10/18 11:22:40;;;;;;;12.27;8.90;;;15.10;76.50;;;;;;5028087;28;20037;-74
2021/10/18 11:25:11;;;;;;;14.50;9.35;;;15.20;76.20;;;;;;5028035;28;20026;-75
2021/10/18 11:27:38;;;;;;;13.15;8.68;;;15.20;77.00;;;;;;5095833;28;20032;-75
2021/10/18 11:30:10;;;;;;;13.63;9.32;;;15.40;76.10;;;;;;5027082;28;20132;-74
2021/10/18 11:32:36;;;;;;;15.65;8.57;;;15.50;75.40;;;;;;5095906;28;20021;-74
2021/10/18 11:35:16;;;;;;;10.95;8.15;;;15.60;74.80;;;;;;5096100;28;20040;-75
2021/10/18 11:37:54;;;;;;;14.07;8.57;;;15.70;74.00;;;;;;5096042;28;20041;-75
2021/10/18 11:40:23;;;;;;;12.20;7.50;;;15.70;74.10;;;;;;5027569;28;20049;-74
2021/10/18 11:43:01;;;;;;;13.80;7.90;;;15.70;74.80;;;;;;5027702;28;20049;-74
2021/10/18 11:45:31;;;;;;;14.15;7.32;;;15.70;74.60;;;;;;5027753;28;20028;-74
2021/10/18 11:48:13;;;;;;;9.68;7.72;;;15.80;74.80;;;;;;5027864;28;20059;-75
2021/10/18 11:50:43;;;;;;;10.05;7.35;;;15.80;74.10;;;;;;5027566;28;20022;-75
2021/10/18 11:53:22;;;;;;;11.18;7.15;;;15.80;74.60;;;;;;5027627;28;20021;-75
2021/10/18 11:55:50;;;;;;;8.68;6.25;;;15.90;74.70;;;;;;5038951;28;20060;-75
2021/10/18 11:58:21;;;;;;;9.60;5.73;;;16.00;73.90;;;;;;5047283;28;20519;-75
2021/10/18 12:00:59;;;;;;;8.98;6.30;;;16.00;74.00;;;;;;5029580;28;20636;-75
2021/10/18 12:03:25;;;;;;;8.82;5.97;;;16.20;73.90;;;;;;5047474;28;20377;-75
2021/10/18 12:05:52;;;;;;;10.75;6.03;;;16.20;73.40;;;;;;5047384;28;20029;-75
2021/10/18 12:08:20;;;;;;;10.10;5.80;;;16.30;73.30;;;;;;5029572;28;20078;-75
2021/10/18 12:10:51;;;;;;;13.02;6.38;;;16.30;74.00;;;;;;5047186;28;20025;-75
2021/10/18 12:13:18;;;;;;;12.23;6.32;;;16.40;73.30;;;;;;5041913;28;20515;-74
2021/10/18 12:15:50;;;;;;;8.50;6.05;;;16.40;73.20;;;;;;5072534;28;20038;-75
2021/10/18 12:18:24;;;;;;;8.00;6.20;;;16.40;73.50;;;;;;5025846;28;20043;-75
2021/10/18 12:21:03;;;;;;;11.27;5.88;;;16.50;73.40;;;;;;5027323;28;20057;-75
2021/10/18 12:23:32;;;;;;;9.57;5.65;;;16.40;73.30;;;;;;5027294;28;20117;-75
2021/10/18 12:26:05;;;;;;;8.98;5.63;;;16.40;73.40;;;;;;5026016;28;20067;-75
2021/10/18 12:28:41;;;;;;;7.03;5.18;;;16.40;73.40;;;;;;5027325;28;20022;-75
2021/10/18 12:31:23;;;;;;;7.05;5.20;;;16.40;73.30;;;;;;5027484;28;20084;-75
2021/10/18 12:34:10;;;;;;;11.45;5.13;;;16.40;73.60;;;;;;5027138;28;20026;-75
2021/10/18 12:36:53;;;;;;;10.35;4.95;;;16.40;73.40;;;;;;5025423;28;20037;-75
2021/10/18 12:39:48;;;;;;;9.45;4.45;;;16.40;73.30;;;;;;5006226;28;20076;-76
2021/10/18 12:42:20;;;;;;;9.05;6.40;;;16.40;73.80;;;;;;5010455;28;20038;-75
2021/10/18 12:44:48;;;;;;;25.88;18.70;;;16.40;73.90;;;;;;5008216;28;20059;-75
2021/10/18 12:47:19;;;;;;;17.40;11.30;;;16.40;73.90;;;;;;4993368;28;20716;-75
2021/10/18 12:49:52;;;;;;;11.00;6.30;;;16.40;74.00;;;;;;5009809;28;20033;-75
2021/10/18 12:52:35;;;;;;;12.75;5.22;;;16.40;74.20;;;;;;5011484;28;20034;-75
2021/10/18 12:55:16;;;;;;;7.20;5.10;;;16.50;74.30;;;;;;5010059;28;20029;-75
2021/10/18 12:58:03;;;;;;;11.27;5.70;;;16.40;74.10;;;;;;5010519;28;20034;-74
2021/10/18 13:00:36;;;;;;;6.95;5.05;;;16.40;73.90;;;;;;5014332;28;20034;-75
2021/10/18 13:03:08;;;;;;;7.30;5.05;;;16.40;74.30;;;;;;5010513;28;20485;-77
2021/10/18 13:05:42;;;;;;;12.55;5.40;;;16.40;74.90;;;;;;5015345;28;20457;-74
2021/10/18 13:08:08;;;;;;;10.55;4.65;;;16.40;74.70;;;;;;5028599;28;20018;-74
2021/10/18 13:10:36;;;;;;;7.72;4.75;;;16.40;75.10;;;;;;5028558;28;20242;-74
2021/10/18 13:13:11;;;;;;;6.90;4.47;;;16.40;75.00;;;;;;5029879;28;20531;-74
2021/10/18 13:15:38;;;;;;;8.80;5.30;;;16.40;74.80;;;;;;5029773;28;20057;-75
2021/10/18 13:18:05;;;;;;;9.05;4.95;;;16.40;74.90;;;;;;5029394;28;20026;-75
2021/10/18 13:20:31;;;;;;;10.32;4.88;;;16.40;74.90;;;;;;5014631;28;20034;-75
2021/10/18 13:23:05;;;;;;;7.13;4.70;;;16.50;75.00;;;;;;5041549;28;20029;-74
2021/10/18 13:25:32;;;;;;;5.95;4.30;;;16.50;74.80;;;;;;5009672;28;20022;-74
2021/10/18 13:27:59;;;;;;;7.75;4.50;;;16.60;75.00;;;;;;5009557;28;20037;-75
2021/10/18 13:30:26;;;;;;;6.78;4.80;;;16.60;75.40;;;;;;4991979;28;20026;-75
2021/10/18 13:32:54;;;;;;;7.75;4.63;;;16.60;75.10;;;;;;5007994;28;20438;-75
2021/10/18 13:35:20;;;;;;;8.10;4.93;;;16.60;75.40;;;;;;5008092;28;20550;-75
2021/10/18 13:37:46;;;;;;;6.63;4.75;;;16.60;75.30;;;;;;5009092;28;20474;-75
2021/10/18 13:40:13;;;;;;;8.27;4.82;;;16.60;75.20;;;;;;5026624;28;20049;-74
2021/10/18 13:42:41;;;;;;;12.90;4.78;;;16.60;75.00;;;;;;5029283;28;20029;-74
2021/10/18 13:45:08;;;;;;;9.63;4.95;;;16.60;74.90;;;;;;5097874;28;20021;-75
2021/10/18 13:47:33;;;;;;;10.88;4.53;;;16.60;75.00;;;;;;5081002;28;20453;-74
2021/10/18 13:49:59;;;;;;;7.35;4.60;;;16.60;75.40;;;;;;5029380;28;20045;-74
2021/10/18 13:52:26;;;;;;;10.07;5.00;;;16.60;75.80;;;;;;5113814;27;20030;-74
2021/10/18 13:54:52;;;;;;;6.50;4.30;;;16.60;76.90;;;;;;5098508;28;20412;-75